sensor_id;sensor_type;location;lat;lon;timestamp;temperature;humidity
3134;DHT22;1577;49.912;10.924;2023-06-14T00:01:41;15.50;75.10
3134;DHT22;1577;49.912;10.924;2023-06-14T00:04:11;15.50;75.70
3134;DHT22;1577;49.912;10.924;2023-06-14T00:06:36;15.50;76.00
3134;DHT22;1577;49.912;10.924;2023-06-14T00:09:02;15.50;76.70
3134;DHT22;1577;49.912;10.924;2023-06-14T00:11:28;15.40;77.00
3134;DHT22;1577;49.912;10.924;2023-06-14T00:13:54;15.40;77.20
3134;DHT22;1577;49.912;10.924;2023-06-14T00:16:20;15.30;77.50
3134;DHT22;1577;49.912;10.924;2023-06-14T00:18:46;15.20;77.70
3134;DHT22;1577;49.912;10.924;2023-06-14T00:21:11;15.10;77.70
3134;DHT22;1577;49.912;10.924;2023-06-14T00:23:37;15.10;78.20
3134;DHT22;1577;49.912;10.924;2023-06-14T00:26:03;15.10;78.50
3134;DHT22;1577;49.912;10.924;2023-06-14T00:28:29;15.10;78.50
3134;DHT22;1577;49.912;10.924;2023-06-14T00:30:54;15.00;79.00
3134;DHT22;1577;49.912;10.924;2023-06-14T00:33:20;14.90;79.00
3134;DHT22;1577;49.912;10.924;2023-06-14T00:35:46;14.90;79.40
3134;DHT22;1577;49.912;10.924;2023-06-14T00:38:12;14.80;79.60
3134;DHT22;1577;49.912;10.924;2023-06-14T00:40:38;14.80;80.00
3134;DHT22;1577;49.912;10.924;2023-06-14T00:43:03;14.70;80.40
3134;DHT22;1577;49.912;10.924;2023-06-14T00:45:29;14.70;80.70
3134;DHT22;1577;49.912;10.924;2023-06-14T00:47:56;14.60;81.00
3134;DHT22;1577;49.912;10.924;2023-06-14T00:50:23;14.60;81.40
3134;DHT22;1577;49.912;10.924;2023-06-14T00:52:49;14.50;81.60
3134;DHT22;1577;49.912;10.924;2023-06-14T00:55:15;14.50;81.90
3134;DHT22;1577;49.912;10.924;2023-06-14T00:57:41;14.40;81.60
3134;DHT22;1577;49.912;10.924;2023-06-14T01:00:07;14.40;82.30
3134;DHT22;1577;49.912;10.924;2023-06-14T01:02:36;14.30;82.50
3134;DHT22;1577;49.912;10.924;2023-06-14T01:05:02;14.30;82.80
3134;DHT22;1577;49.912;10.924;2023-06-14T01:15:52;14.30;84.10
3134;DHT22;1577;49.912;10.924;2023-06-14T01:18:18;14.20;84.40
3134;DHT22;1577;49.912;10.924;2023-06-14T01:20:46;14.30;85.20
3134;DHT22;1577;49.912;10.924;2023-06-14T01:23:20;14.20;85.20
3134;DHT22;1577;49.912;10.924;2023-06-14T01:25:46;14.30;86.20
3134;DHT22;1577;49.912;10.924;2023-06-14T01:28:14;14.20;86.90
3134;DHT22;1577;49.912;10.924;2023-06-14T01:30:44;14.10;86.50
3134;DHT22;1577;49.912;10.924;2023-06-14T01:33:13;14.10;87.20
3134;DHT22;1577;49.912;10.924;2023-06-14T01:35:44;14.00;87.20
3134;DHT22;1577;49.912;10.924;2023-06-14T01:38:10;14.00;87.70
3134;DHT22;1577;49.912;10.924;2023-06-14T01:40:38;13.90;88.60
3134;DHT22;1577;49.912;10.924;2023-06-14T01:43:05;14.10;89.80
3134;DHT22;1577;49.912;10.924;2023-06-14T01:45:31;14.00;89.90
3134;DHT22;1577;49.912;10.924;2023-06-14T01:47:58;13.90;90.00
3134;DHT22;1577;49.912;10.924;2023-06-14T01:50:28;14.00;90.60
3134;DHT22;1577;49.912;10.924;2023-06-14T01:52:55;14.00;90.70
3134;DHT22;1577;49.912;10.924;2023-06-14T01:55:20;14.00;90.80
3134;DHT22;1577;49.912;10.924;2023-06-14T01:57:47;13.90;90.70
3134;DHT22;1577;49.912;10.924;2023-06-14T02:00:14;13.80;90.90
3134;DHT22;1577;49.912;10.924;2023-06-14T02:02:40;13.70;91.00
3134;DHT22;1577;49.912;10.924;2023-06-14T02:05:06;13.70;91.30
3134;DHT22;1577;49.912;10.924;2023-06-14T02:07:33;13.70;91.70
3134;DHT22;1577;49.912;10.924;2023-06-14T02:09:58;13.70;91.50
3134;DHT22;1577;49.912;10.924;2023-06-14T02:12:24;13.60;91.70
3134;DHT22;1577;49.912;10.924;2023-06-14T02:14:50;13.50;91.80
3134;DHT22;1577;49.912;10.924;2023-06-14T02:17:15;13.50;92.10
3134;DHT22;1577;49.912;10.924;2023-06-14T02:19:41;13.50;92.30
3134;DHT22;1577;49.912;10.924;2023-06-14T02:22:07;13.60;92.20
3134;DHT22;1577;49.912;10.924;2023-06-14T02:24:33;13.60;92.20
3134;DHT22;1577;49.912;10.924;2023-06-14T02:26:58;13.60;92.20
3134;DHT22;1577;49.912;10.924;2023-06-14T02:29:25;13.60;92.20
3134;DHT22;1577;49.912;10.924;2023-06-14T02:31:50;13.50;92.20
3134;DHT22;1577;49.912;10.924;2023-06-14T02:34:16;13.40;92.20
3134;DHT22;1577;49.912;10.924;2023-06-14T02:36:43;13.40;92.40
3134;DHT22;1577;49.912;10.924;2023-06-14T02:39:11;13.40;92.50
3134;DHT22;1577;49.912;10.924;2023-06-14T02:41:37;13.30;92.80
3134;DHT22;1577;49.912;10.924;2023-06-14T02:44:02;13.20;92.90
3134;DHT22;1577;49.912;10.924;2023-06-14T02:46:28;13.10;93.10
3134;DHT22;1577;49.912;10.924;2023-06-14T02:48:54;13.10;93.40
3134;DHT22;1577;49.912;10.924;2023-06-14T02:51:19;13.20;93.70
3134;DHT22;1577;49.912;10.924;2023-06-14T02:53:45;13.20;93.90
3134;DHT22;1577;49.912;10.924;2023-06-14T02:56:10;13.20;93.70
3134;DHT22;1577;49.912;10.924;2023-06-14T02:58:37;13.10;93.80
3134;DHT22;1577;49.912;10.924;2023-06-14T03:01:04;13.10;94.10
3134;DHT22;1577;49.912;10.924;2023-06-14T03:03:31;13.10;94.30
3134;DHT22;1577;49.912;10.924;2023-06-14T03:05:57;13.00;94.10
3134;DHT22;1577;49.912;10.924;2023-06-14T03:08:22;13.00;94.40
3134;DHT22;1577;49.912;10.924;2023-06-14T03:10:52;13.00;94.40
3134;DHT22;1577;49.912;10.924;2023-06-14T03:13:18;13.00;94.70
3134;DHT22;1577;49.912;10.924;2023-06-14T03:15:47;12.90;94.60
3134;DHT22;1577;49.912;10.924;2023-06-14T03:18:16;13.00;95.00
3134;DHT22;1577;49.912;10.924;2023-06-14T03:20:41;13.00;95.20
3134;DHT22;1577;49.912;10.924;2023-06-14T03:23:08;12.90;95.30
3134;DHT22;1577;49.912;10.924;2023-06-14T03:25:34;12.90;95.50
3134;DHT22;1577;49.912;10.924;2023-06-14T03:28:01;12.90;95.70
3134;DHT22;1577;49.912;10.924;2023-06-14T03:30:27;12.90;95.80
3134;DHT22;1577;49.912;10.924;2023-06-14T03:32:53;12.90;95.90
3134;DHT22;1577;49.912;10.924;2023-06-14T03:35:21;12.90;96.10
3134;DHT22;1577;49.912;10.924;2023-06-14T03:37:47;13.00;96.30
3134;DHT22;1577;49.912;10.924;2023-06-14T03:40:14;12.90;96.30
3134;DHT22;1577;49.912;10.924;2023-06-14T03:42:40;12.90;96.50
3134;DHT22;1577;49.912;10.924;2023-06-14T03:45:06;12.90;96.60
3134;DHT22;1577;49.912;10.924;2023-06-14T03:47:32;13.00;96.70
3134;DHT22;1577;49.912;10.924;2023-06-14T03:49:58;13.00;96.80
3134;DHT22;1577;49.912;10.924;2023-06-14T03:52:24;13.10;96.80
3134;DHT22;1577;49.912;10.924;2023-06-14T03:54:50;13.20;96.60
3134;DHT22;1577;49.912;10.924;2023-06-14T03:57:16;13.20;96.50
3134;DHT22;1577;49.912;10.924;2023-06-14T03:59:42;13.20;96.70
3134;DHT22;1577;49.912;10.924;2023-06-14T04:02:08;13.30;96.80
3134;DHT22;1577;49.912;10.924;2023-06-14T04:04:35;13.30;96.80
3134;DHT22;1577;49.912;10.924;2023-06-14T04:07:01;13.30;96.70
3134;DHT22;1577;49.912;10.924;2023-06-14T04:09:31;13.40;96.80
3134;DHT22;1577;49.912;10.924;2023-06-14T04:11:57;13.40;96.80
3134;DHT22;1577;49.912;10.924;2023-06-14T04:14:22;13.40;96.90
3134;DHT22;1577;49.912;10.924;2023-06-14T04:16:49;13.50;96.80
3134;DHT22;1577;49.912;10.924;2023-06-14T04:19:15;13.70;96.90
3134;DHT22;1577;49.912;10.924;2023-06-14T04:21:41;13.70;96.90
3134;DHT22;1577;49.912;10.924;2023-06-14T04:24:07;13.80;96.60
3134;DHT22;1577;49.912;10.924;2023-06-14T04:26:38;13.80;96.60
3134;DHT22;1577;49.912;10.924;2023-06-14T04:29:05;13.80;96.70
3134;DHT22;1577;49.912;10.924;2023-06-14T04:31:32;13.90;96.80
3134;DHT22;1577;49.912;10.924;2023-06-14T04:34:03;14.00;96.60
3134;DHT22;1577;49.912;10.924;2023-06-14T04:36:32;14.20;96.30
3134;DHT22;1577;49.912;10.924;2023-06-14T04:39:00;14.30;96.10
3134;DHT22;1577;49.912;10.924;2023-06-14T04:41:26;14.40;96.20
3134;DHT22;1577;49.912;10.924;2023-06-14T04:43:59;14.50;95.80
3134;DHT22;1577;49.912;10.924;2023-06-14T04:46:30;14.50;95.70
3134;DHT22;1577;49.912;10.924;2023-06-14T04:48:58;14.60;95.50
3134;DHT22;1577;49.912;10.924;2023-06-14T04:51:27;14.60;95.70
3134;DHT22;1577;49.912;10.924;2023-06-14T04:53:57;14.70;95.50
3134;DHT22;1577;49.912;10.924;2023-06-14T04:56:24;14.80;95.90
3134;DHT22;1577;49.912;10.924;2023-06-14T04:58:51;15.00;95.40
3134;DHT22;1577;49.912;10.924;2023-06-14T05:01:18;15.10;95.10
3134;DHT22;1577;49.912;10.924;2023-06-14T05:03:43;15.20;94.60
3134;DHT22;1577;49.912;10.924;2023-06-14T05:06:10;15.30;94.60
3134;DHT22;1577;49.912;10.924;2023-06-14T05:08:37;15.40;94.60
3134;DHT22;1577;49.912;10.924;2023-06-14T05:11:02;15.40;94.30
3134;DHT22;1577;49.912;10.924;2023-06-14T05:13:28;15.40;94.10
3134;DHT22;1577;49.912;10.924;2023-06-14T05:15:53;15.50;94.20
3134;DHT22;1577;49.912;10.924;2023-06-14T05:18:19;15.50;93.80
3134;DHT22;1577;49.912;10.924;2023-06-14T05:20:45;15.60;93.80
3134;DHT22;1577;49.912;10.924;2023-06-14T05:23:11;15.60;93.90
3134;DHT22;1577;49.912;10.924;2023-06-14T05:25:44;15.70;93.80
3134;DHT22;1577;49.912;10.924;2023-06-14T05:28:10;15.70;93.60
3134;DHT22;1577;49.912;10.924;2023-06-14T05:30:38;15.80;93.60
3134;DHT22;1577;49.912;10.924;2023-06-14T05:33:03;15.80;93.10
3134;DHT22;1577;49.912;10.924;2023-06-14T05:35:29;15.90;93.20
3134;DHT22;1577;49.912;10.924;2023-06-14T05:37:55;15.90;93.60
3134;DHT22;1577;49.912;10.924;2023-06-14T05:40:21;16.00;93.90
3134;DHT22;1577;49.912;10.924;2023-06-14T05:42:46;16.10;94.00
3134;DHT22;1577;49.912;10.924;2023-06-14T05:45:12;16.20;93.90
3134;DHT22;1577;49.912;10.924;2023-06-14T05:47:37;16.30;93.70
3134;DHT22;1577;49.912;10.924;2023-06-14T05:50:03;16.30;93.60
3134;DHT22;1577;49.912;10.924;2023-06-14T05:52:29;16.40;93.70
3134;DHT22;1577;49.912;10.924;2023-06-14T05:54:55;16.40;93.70
3134;DHT22;1577;49.912;10.924;2023-06-14T05:57:20;16.60;93.50
3134;DHT22;1577;49.912;10.924;2023-06-14T05:59:46;16.60;93.20
3134;DHT22;1577;49.912;10.924;2023-06-14T06:02:12;16.70;93.40
3134;DHT22;1577;49.912;10.924;2023-06-14T06:04:37;16.80;93.10
3134;DHT22;1577;49.912;10.924;2023-06-14T06:07:03;16.80;92.80
3134;DHT22;1577;49.912;10.924;2023-06-14T06:09:29;16.90;93.00
3134;DHT22;1577;49.912;10.924;2023-06-14T06:11:55;17.00;92.10
3134;DHT22;1577;49.912;10.924;2023-06-14T06:14:21;17.10;91.90
3134;DHT22;1577;49.912;10.924;2023-06-14T06:16:46;17.20;91.60
3134;DHT22;1577;49.912;10.924;2023-06-14T06:19:12;17.30;91.40
3134;DHT22;1577;49.912;10.924;2023-06-14T06:21:37;17.40;91.30
3134;DHT22;1577;49.912;10.924;2023-06-14T06:24:05;17.50;90.90
3134;DHT22;1577;49.912;10.924;2023-06-14T06:26:31;17.60;90.70
3134;DHT22;1577;49.912;10.924;2023-06-14T06:28:57;17.60;90.40
3134;DHT22;1577;49.912;10.924;2023-06-14T06:31:23;17.60;90.50
3134;DHT22;1577;49.912;10.924;2023-06-14T06:33:49;17.70;90.10
3134;DHT22;1577;49.912;10.924;2023-06-14T06:36:16;17.90;89.70
3134;DHT22;1577;49.912;10.924;2023-06-14T06:38:41;18.70;88.30
3134;DHT22;1577;49.912;10.924;2023-06-14T06:41:07;19.90;85.80
3134;DHT22;1577;49.912;10.924;2023-06-14T06:43:32;21.20;83.60
3134;DHT22;1577;49.912;10.924;2023-06-14T06:45:58;22.40;78.80
3134;DHT22;1577;49.912;10.924;2023-06-14T06:48:24;23.40;75.20
3134;DHT22;1577;49.912;10.924;2023-06-14T06:50:49;24.30;73.30
3134;DHT22;1577;49.912;10.924;2023-06-14T06:53:15;25.10;69.70
3134;DHT22;1577;49.912;10.924;2023-06-14T06:55:40;25.50;66.90
3134;DHT22;1577;49.912;10.924;2023-06-14T06:58:06;25.30;66.00
3134;DHT22;1577;49.912;10.924;2023-06-14T07:00:32;25.00;65.90
3134;DHT22;1577;49.912;10.924;2023-06-14T07:02:57;25.40;66.70
3134;DHT22;1577;49.912;10.924;2023-06-14T07:05:23;26.20;64.50
3134;DHT22;1577;49.912;10.924;2023-06-14T07:07:48;27.10;62.80
3134;DHT22;1577;49.912;10.924;2023-06-14T07:10:14;27.50;59.40
3134;DHT22;1577;49.912;10.924;2023-06-14T07:12:40;28.00;58.10
3134;DHT22;1577;49.912;10.924;2023-06-14T07:15:07;28.60;57.00
3134;DHT22;1577;49.912;10.924;2023-06-14T07:17:33;28.90;55.50
3134;DHT22;1577;49.912;10.924;2023-06-14T07:19:59;29.30;54.50
3134;DHT22;1577;49.912;10.924;2023-06-14T07:22:26;29.80;54.50
3134;DHT22;1577;49.912;10.924;2023-06-14T07:24:51;30.20;52.10
3134;DHT22;1577;49.912;10.924;2023-06-14T07:27:17;30.20;51.00
3134;DHT22;1577;49.912;10.924;2023-06-14T07:29:42;30.00;51.00
3134;DHT22;1577;49.912;10.924;2023-06-14T07:32:08;30.00;51.10
3134;DHT22;1577;49.912;10.924;2023-06-14T07:34:34;29.70;50.70
3134;DHT22;1577;49.912;10.924;2023-06-14T07:36:59;29.60;50.60
3134;DHT22;1577;49.912;10.924;2023-06-14T07:39:25;29.00;50.50
3134;DHT22;1577;49.912;10.924;2023-06-14T07:41:51;28.30;50.80
3134;DHT22;1577;49.912;10.924;2023-06-14T07:44:16;27.80;51.40
3134;DHT22;1577;49.912;10.924;2023-06-14T07:46:42;27.50;51.60
3134;DHT22;1577;49.912;10.924;2023-06-14T07:49:07;27.50;51.40
3134;DHT22;1577;49.912;10.924;2023-06-14T07:51:33;27.50;51.80
3134;DHT22;1577;49.912;10.924;2023-06-14T07:53:59;27.60;51.70
3134;DHT22;1577;49.912;10.924;2023-06-14T07:56:28;27.60;51.30
3134;DHT22;1577;49.912;10.924;2023-06-14T07:58:54;27.60;51.30
3134;DHT22;1577;49.912;10.924;2023-06-14T08:01:20;27.50;50.90
3134;DHT22;1577;49.912;10.924;2023-06-14T08:03:45;27.70;50.90
3134;DHT22;1577;49.912;10.924;2023-06-14T08:06:11;27.80;50.80
3134;DHT22;1577;49.912;10.924;2023-06-14T08:08:37;28.10;50.70
3134;DHT22;1577;49.912;10.924;2023-06-14T08:11:02;28.10;49.60
3134;DHT22;1577;49.912;10.924;2023-06-14T08:13:28;28.20;50.20
3134;DHT22;1577;49.912;10.924;2023-06-14T08:15:53;28.30;49.80
3134;DHT22;1577;49.912;10.924;2023-06-14T08:18:20;28.50;50.80
3134;DHT22;1577;49.912;10.924;2023-06-14T08:20:46;29.00;49.80
3134;DHT22;1577;49.912;10.924;2023-06-14T08:23:12;29.30;48.80
3134;DHT22;1577;49.912;10.924;2023-06-14T08:25:38;29.40;48.70
3134;DHT22;1577;49.912;10.924;2023-06-14T08:28:04;29.50;48.60
3134;DHT22;1577;49.912;10.924;2023-06-14T08:30:30;29.80;48.50
3134;DHT22;1577;49.912;10.924;2023-06-14T08:32:55;30.20;48.50
3134;DHT22;1577;49.912;10.924;2023-06-14T08:35:22;30.30;48.00
3134;DHT22;1577;49.912;10.924;2023-06-14T08:37:47;30.40;47.80
3134;DHT22;1577;49.912;10.924;2023-06-14T08:40:23;30.60;47.00
3134;DHT22;1577;49.912;10.924;2023-06-14T08:42:53;30.80;46.20
3134;DHT22;1577;49.912;10.924;2023-06-14T08:45:20;31.20;46.80
3134;DHT22;1577;49.912;10.924;2023-06-14T08:47:47;31.10;45.20
3134;DHT22;1577;49.912;10.924;2023-06-14T08:50:20;30.80;45.90
3134;DHT22;1577;49.912;10.924;2023-06-14T08:52:45;30.60;46.60
3134;DHT22;1577;49.912;10.924;2023-06-14T08:55:18;30.30;46.70
3134;DHT22;1577;49.912;10.924;2023-06-14T08:57:46;30.30;47.20
3134;DHT22;1577;49.912;10.924;2023-06-14T09:00:13;30.10;47.20
3134;DHT22;1577;49.912;10.924;2023-06-14T09:02:40;29.70;46.30
3134;DHT22;1577;49.912;10.924;2023-06-14T09:05:11;29.50;46.60
3134;DHT22;1577;49.912;10.924;2023-06-14T09:07:41;29.10;47.80
3134;DHT22;1577;49.912;10.924;2023-06-14T09:10:14;28.80;48.00
3134;DHT22;1577;49.912;10.924;2023-06-14T09:12:40;28.80;46.90
3134;DHT22;1577;49.912;10.924;2023-06-14T09:15:07;28.70;46.60
3134;DHT22;1577;49.912;10.924;2023-06-14T09:17:38;29.00;47.00
3134;DHT22;1577;49.912;10.924;2023-06-14T09:20:05;28.60;47.70
3134;DHT22;1577;49.912;10.924;2023-06-14T09:22:32;28.50;48.60
3134;DHT22;1577;49.912;10.924;2023-06-14T09:24:58;29.00;48.30
3134;DHT22;1577;49.912;10.924;2023-06-14T09:27:28;29.30;47.50
3134;DHT22;1577;49.912;10.924;2023-06-14T09:29:54;29.60;48.00
3134;DHT22;1577;49.912;10.924;2023-06-14T09:32:21;29.70;46.50
3134;DHT22;1577;49.912;10.924;2023-06-14T09:34:46;29.30;46.50
3134;DHT22;1577;49.912;10.924;2023-06-14T09:37:12;28.80;46.80
3134;DHT22;1577;49.912;10.924;2023-06-14T09:39:50;28.70;47.00
3134;DHT22;1577;49.912;10.924;2023-06-14T09:42:17;28.10;47.90
3134;DHT22;1577;49.912;10.924;2023-06-14T09:44:51;28.00;48.50
3134;DHT22;1577;49.912;10.924;2023-06-14T09:47:16;28.00;48.20
3134;DHT22;1577;49.912;10.924;2023-06-14T09:49:42;28.10;48.20
3134;DHT22;1577;49.912;10.924;2023-06-14T09:52:15;28.10;47.60
3134;DHT22;1577;49.912;10.924;2023-06-14T09:54:43;28.30;48.10
3134;DHT22;1577;49.912;10.924;2023-06-14T09:57:10;28.40;47.90
3134;DHT22;1577;49.912;10.924;2023-06-14T09:59:45;28.10;47.80
3134;DHT22;1577;49.912;10.924;2023-06-14T10:02:34;28.10;47.90
3134;DHT22;1577;49.912;10.924;2023-06-14T10:08:08;28.30;48.00
3134;DHT22;1577;49.912;10.924;2023-06-14T10:10:25;28.50;48.00
3134;DHT22;1577;49.912;10.924;2023-06-14T10:12:52;28.30;47.70
3134;DHT22;1577;49.912;10.924;2023-06-14T10:15:28;28.20;47.70
3134;DHT22;1577;49.912;10.924;2023-06-14T10:18:06;28.00;46.80
3134;DHT22;1577;49.912;10.924;2023-06-14T10:20:47;28.00;47.30
3134;DHT22;1577;49.912;10.924;2023-06-14T10:23:19;27.80;45.50
3134;DHT22;1577;49.912;10.924;2023-06-14T10:25:49;27.50;46.30
3134;DHT22;1577;49.912;10.924;2023-06-14T10:28:20;27.00;46.90
3134;DHT22;1577;49.912;10.924;2023-06-14T10:33:36;26.80;48.90
3134;DHT22;1577;49.912;10.924;2023-06-14T10:36:25;26.90;48.30
3134;DHT22;1577;49.912;10.924;2023-06-14T10:39:14;26.90;47.80
3134;DHT22;1577;49.912;10.924;2023-06-14T10:41:41;26.70;47.80
3134;DHT22;1577;49.912;10.924;2023-06-14T10:47:01;26.40;49.20
3134;DHT22;1577;49.912;10.924;2023-06-14T10:49:41;26.50;48.00
3134;DHT22;1577;49.912;10.924;2023-06-14T10:52:15;26.30;48.50
3134;DHT22;1577;49.912;10.924;2023-06-14T10:55:10;26.20;48.60
3134;DHT22;1577;49.912;10.924;2023-06-14T10:57:52;26.00;49.20
3134;DHT22;1577;49.912;10.924;2023-06-14T11:00:28;25.70;49.60
3134;DHT22;1577;49.912;10.924;2023-06-14T11:05:51;25.30;49.40
3134;DHT22;1577;49.912;10.924;2023-06-14T11:09:20;25.20;50.00
3134;DHT22;1577;49.912;10.924;2023-06-14T11:11:31;25.20;50.20
3134;DHT22;1577;49.912;10.924;2023-06-14T11:13:59;25.10;50.20
3134;DHT22;1577;49.912;10.924;2023-06-14T11:16:26;25.10;50.60
3134;DHT22;1577;49.912;10.924;2023-06-14T11:18:53;25.20;50.20
3134;DHT22;1577;49.912;10.924;2023-06-14T11:21:19;25.30;50.70
3134;DHT22;1577;49.912;10.924;2023-06-14T11:23:51;25.40;50.30
3134;DHT22;1577;49.912;10.924;2023-06-14T11:26:28;25.40;50.40
3134;DHT22;1577;49.912;10.924;2023-06-14T11:28:58;25.50;50.70
3134;DHT22;1577;49.912;10.924;2023-06-14T11:31:25;25.70;50.10
3134;DHT22;1577;49.912;10.924;2023-06-14T11:33:53;25.90;50.60
3134;DHT22;1577;49.912;10.924;2023-06-14T11:36:19;25.90;49.80
3134;DHT22;1577;49.912;10.924;2023-06-14T11:38:45;25.80;50.10
3134;DHT22;1577;49.912;10.924;2023-06-14T11:41:10;25.80;49.90
3134;DHT22;1577;49.912;10.924;2023-06-14T11:43:36;25.90;49.40
3134;DHT22;1577;49.912;10.924;2023-06-14T11:46:02;26.00;49.60
3134;DHT22;1577;49.912;10.924;2023-06-14T11:48:38;25.90;48.80
3134;DHT22;1577;49.912;10.924;2023-06-14T11:51:04;26.00;49.10
3134;DHT22;1577;49.912;10.924;2023-06-14T11:53:30;26.00;49.10
3134;DHT22;1577;49.912;10.924;2023-06-14T11:55:56;26.00;48.70
3134;DHT22;1577;49.912;10.924;2023-06-14T11:58:22;26.00;48.60
3134;DHT22;1577;49.912;10.924;2023-06-14T12:00:51;25.80;49.40
3134;DHT22;1577;49.912;10.924;2023-06-14T12:03:17;25.60;49.30
3134;DHT22;1577;49.912;10.924;2023-06-14T12:05:43;25.50;49.70
3134;DHT22;1577;49.912;10.924;2023-06-14T12:08:09;25.40;49.50
3134;DHT22;1577;49.912;10.924;2023-06-14T12:10:41;25.20;49.80
3134;DHT22;1577;49.912;10.924;2023-06-14T12:13:09;25.30;49.80
3134;DHT22;1577;49.912;10.924;2023-06-14T12:15:36;25.40;49.00
3134;DHT22;1577;49.912;10.924;2023-06-14T12:18:05;25.50;49.10
3134;DHT22;1577;49.912;10.924;2023-06-14T12:20:33;25.60;48.50
3134;DHT22;1577;49.912;10.924;2023-06-14T12:23:03;25.60;49.30
3134;DHT22;1577;49.912;10.924;2023-06-14T12:25:36;25.30;50.10
3134;DHT22;1577;49.912;10.924;2023-06-14T12:28:06;25.10;50.50
3134;DHT22;1577;49.912;10.924;2023-06-14T12:30:33;24.90;48.90
3134;DHT22;1577;49.912;10.924;2023-06-14T12:32:59;24.90;49.50
3134;DHT22;1577;49.912;10.924;2023-06-14T12:35:25;24.80;50.30
3134;DHT22;1577;49.912;10.924;2023-06-14T12:37:51;24.80;50.40
3134;DHT22;1577;49.912;10.924;2023-06-14T12:40:17;24.80;50.50
3134;DHT22;1577;49.912;10.924;2023-06-14T12:42:44;24.70;50.10
3134;DHT22;1577;49.912;10.924;2023-06-14T12:45:10;24.70;50.30
3134;DHT22;1577;49.912;10.924;2023-06-14T12:47:36;24.70;50.60
3134;DHT22;1577;49.912;10.924;2023-06-14T12:50:02;24.80;49.90
3134;DHT22;1577;49.912;10.924;2023-06-14T12:52:27;24.80;48.60
3134;DHT22;1577;49.912;10.924;2023-06-14T12:54:53;24.90;48.60
3134;DHT22;1577;49.912;10.924;2023-06-14T12:57:19;25.00;48.60
3134;DHT22;1577;49.912;10.924;2023-06-14T12:59:44;25.10;48.20
3134;DHT22;1577;49.912;10.924;2023-06-14T13:02:16;25.30;48.20
3134;DHT22;1577;49.912;10.924;2023-06-14T13:04:42;25.40;47.50
3134;DHT22;1577;49.912;10.924;2023-06-14T13:07:11;25.60;47.40
3134;DHT22;1577;49.912;10.924;2023-06-14T13:09:37;25.60;46.90
3134;DHT22;1577;49.912;10.924;2023-06-14T13:12:03;25.80;47.00
3134;DHT22;1577;49.912;10.924;2023-06-14T13:14:29;25.80;47.30
3134;DHT22;1577;49.912;10.924;2023-06-14T13:16:54;25.70;47.60
3134;DHT22;1577;49.912;10.924;2023-06-14T13:19:20;25.50;48.80
3134;DHT22;1577;49.912;10.924;2023-06-14T13:21:46;25.30;48.90
3134;DHT22;1577;49.912;10.924;2023-06-14T13:24:12;25.10;49.00
3134;DHT22;1577;49.912;10.924;2023-06-14T13:26:37;25.00;49.50
3134;DHT22;1577;49.912;10.924;2023-06-14T13:29:03;25.00;49.60
3134;DHT22;1577;49.912;10.924;2023-06-14T13:31:29;25.10;49.70
3134;DHT22;1577;49.912;10.924;2023-06-14T13:33:55;25.10;48.80
3134;DHT22;1577;49.912;10.924;2023-06-14T13:36:20;25.10;49.10
3134;DHT22;1577;49.912;10.924;2023-06-14T13:38:46;25.20;49.20
3134;DHT22;1577;49.912;10.924;2023-06-14T13:41:12;25.20;48.90
3134;DHT22;1577;49.912;10.924;2023-06-14T13:43:37;25.10;49.00
3134;DHT22;1577;49.912;10.924;2023-06-14T13:46:03;25.10;49.50
3134;DHT22;1577;49.912;10.924;2023-06-14T13:48:29;25.10;49.30
3134;DHT22;1577;49.912;10.924;2023-06-14T13:50:54;25.10;49.80
3134;DHT22;1577;49.912;10.924;2023-06-14T13:53:20;25.10;49.50
3134;DHT22;1577;49.912;10.924;2023-06-14T13:55:45;25.30;49.10
3134;DHT22;1577;49.912;10.924;2023-06-14T13:58:11;25.30;48.20
3134;DHT22;1577;49.912;10.924;2023-06-14T14:00:36;25.40;47.80
3134;DHT22;1577;49.912;10.924;2023-06-14T14:03:06;25.50;47.90
3134;DHT22;1577;49.912;10.924;2023-06-14T14:05:32;25.60;48.00
3134;DHT22;1577;49.912;10.924;2023-06-14T14:07:58;25.80;48.30
3134;DHT22;1577;49.912;10.924;2023-06-14T14:10:27;25.90;48.30
3134;DHT22;1577;49.912;10.924;2023-06-14T14:12:52;25.90;47.20
3134;DHT22;1577;49.912;10.924;2023-06-14T14:15:20;25.80;48.70
3134;DHT22;1577;49.912;10.924;2023-06-14T14:17:45;25.60;48.20
3134;DHT22;1577;49.912;10.924;2023-06-14T14:20:12;25.40;48.80
3134;DHT22;1577;49.912;10.924;2023-06-14T14:22:43;25.20;49.50
3134;DHT22;1577;49.912;10.924;2023-06-14T14:25:09;25.00;49.70
3134;DHT22;1577;49.912;10.924;2023-06-14T14:27:35;24.80;50.10
3134;DHT22;1577;49.912;10.924;2023-06-14T14:30:01;24.70;50.40
3134;DHT22;1577;49.912;10.924;2023-06-14T14:32:26;24.60;50.30
3134;DHT22;1577;49.912;10.924;2023-06-14T14:34:52;24.60;50.90
3134;DHT22;1577;49.912;10.924;2023-06-14T14:37:17;24.50;50.60
3134;DHT22;1577;49.912;10.924;2023-06-14T14:39:44;24.50;51.20
3134;DHT22;1577;49.912;10.924;2023-06-14T14:42:11;24.50;51.70
3134;DHT22;1577;49.912;10.924;2023-06-14T14:44:38;24.50;51.60
3134;DHT22;1577;49.912;10.924;2023-06-14T14:47:04;24.40;51.00
3134;DHT22;1577;49.912;10.924;2023-06-14T14:49:31;24.30;51.20
3134;DHT22;1577;49.912;10.924;2023-06-14T14:51:56;24.20;51.50
3134;DHT22;1577;49.912;10.924;2023-06-14T14:54:22;24.20;50.90
3134;DHT22;1577;49.912;10.924;2023-06-14T14:56:48;24.20;51.60
3134;DHT22;1577;49.912;10.924;2023-06-14T14:59:14;24.10;51.90
3134;DHT22;1577;49.912;10.924;2023-06-14T15:01:40;24.10;52.40
3134;DHT22;1577;49.912;10.924;2023-06-14T15:04:05;24.10;52.70
3134;DHT22;1577;49.912;10.924;2023-06-14T15:06:31;24.10;52.70
3134;DHT22;1577;49.912;10.924;2023-06-14T15:08:57;24.10;52.70
3134;DHT22;1577;49.912;10.924;2023-06-14T15:11:22;24.10;52.40
3134;DHT22;1577;49.912;10.924;2023-06-14T15:13:48;24.10;52.50
3134;DHT22;1577;49.912;10.924;2023-06-14T15:16:14;24.10;52.30
3134;DHT22;1577;49.912;10.924;2023-06-14T15:18:40;24.20;52.80
3134;DHT22;1577;49.912;10.924;2023-06-14T15:21:05;24.20;52.40
3134;DHT22;1577;49.912;10.924;2023-06-14T15:23:31;24.30;53.10
3134;DHT22;1577;49.912;10.924;2023-06-14T15:25:56;24.50;52.40
3134;DHT22;1577;49.912;10.924;2023-06-14T15:28:23;24.60;51.70
3134;DHT22;1577;49.912;10.924;2023-06-14T15:30:53;24.70;52.20
3134;DHT22;1577;49.912;10.924;2023-06-14T15:33:19;24.70;49.80
3134;DHT22;1577;49.912;10.924;2023-06-14T15:35:46;24.60;50.00
3134;DHT22;1577;49.912;10.924;2023-06-14T15:38:12;24.60;50.90
3134;DHT22;1577;49.912;10.924;2023-06-14T15:40:37;24.30;51.20
3134;DHT22;1577;49.912;10.924;2023-06-14T15:43:03;24.10;51.70
3134;DHT22;1577;49.912;10.924;2023-06-14T15:45:29;24.10;51.30
3134;DHT22;1577;49.912;10.924;2023-06-14T15:47:54;24.00;51.70
3134;DHT22;1577;49.912;10.924;2023-06-14T15:50:20;23.90;51.50
3134;DHT22;1577;49.912;10.924;2023-06-14T15:52:46;24.00;52.10
3134;DHT22;1577;49.912;10.924;2023-06-14T15:55:12;24.10;52.40
3134;DHT22;1577;49.912;10.924;2023-06-14T15:57:38;24.20;53.20
3134;DHT22;1577;49.912;10.924;2023-06-14T16:00:07;24.30;53.70
3134;DHT22;1577;49.912;10.924;2023-06-14T16:02:33;24.40;53.30
3134;DHT22;1577;49.912;10.924;2023-06-14T16:04:58;24.50;53.70